createdAt,value
2018-03-20T00:00:08.510Z,100966.53
2018-03-20T00:02:36.806Z,100965.63
2018-03-20T00:05:06.417Z,100959.47
2018-03-20T00:07:34.708Z,100964.28
2018-03-20T00:10:06.735Z,100959.64
2018-03-20T00:12:35.018Z,100962.34
2018-03-20T00:15:06.438Z,100963.04
2018-03-20T00:17:35.531Z,100966.51
2018-03-20T00:20:07.609Z,100966.59
2018-03-20T00:22:35.910Z,100963.73
2018-03-20T00:25:07.124Z,100968.72
2018-03-20T00:27:35.484Z,100964.98
2018-03-20T00:30:05.645Z,100966.38
2018-03-20T00:32:33.947Z,100969.05
2018-03-20T00:35:05.622Z,100968.11
2018-03-20T00:37:33.881Z,100970.95
2018-03-20T00:40:05.969Z,100973.80
2018-03-20T00:42:34.267Z,100981.30
2018-03-20T00:45:05.673Z,100981.64
2018-03-20T00:47:33.993Z,100978.56
2018-03-20T00:50:05.418Z,100971.28
2018-03-20T00:52:33.950Z,100976.27
2018-03-20T00:55:07.177Z,100978.70
2018-03-20T00:57:35.463Z,100985.38
2018-03-20T01:00:07.300Z,100988.17
2018-03-20T01:02:35.592Z,100995.39
2018-03-20T01:05:07.226Z,100994.84
2018-03-20T01:07:35.547Z,100993.23
2018-03-20T01:10:07.173Z,100989.67
2018-03-20T01:12:35.552Z,100996.23
2018-03-20T01:15:07.471Z,100994.98
2018-03-20T01:17:36.014Z,100999.27
2018-03-20T01:20:07.337Z,100990.11
2018-03-20T01:25:10.191Z,101006.07
2018-03-20T01:27:38.478Z,101001.98
2018-03-20T01:30:06.748Z,101005.01
2018-03-20T01:32:35.042Z,101007.05
2018-03-20T01:35:06.702Z,101011.06
2018-03-20T01:37:35.541Z,100999.50
2018-03-20T01:40:05.718Z,101004.38
2018-03-20T01:42:34.026Z,100999.37
2018-03-20T01:45:05.954Z,100999.94
2018-03-20T01:47:34.262Z,100999.30
2018-03-20T01:50:08.252Z,101005.16
2018-03-20T01:52:36.559Z,101005.17
2018-03-20T01:55:05.977Z,101010.03
2018-03-20T01:57:34.310Z,101006.81
2018-03-20T02:00:06.072Z,101009.91
2018-03-20T02:02:34.576Z,101007.67
2018-03-20T02:05:06.021Z,101011.53
2018-03-20T02:07:34.809Z,101002.05
2018-03-20T02:10:06.588Z,100997.52
2018-03-20T02:12:34.865Z,101003.97
2018-03-20T02:15:05.996Z,101005.92
2018-03-20T02:17:34.250Z,101002.63
2018-03-20T02:20:06.433Z,101003.06
2018-03-20T02:22:34.716Z,101001.58
2018-03-20T02:25:06.878Z,100990.13
2018-03-20T02:27:35.154Z,101000.33
2018-03-20T02:30:07.271Z,101000.11
2018-03-20T02:32:35.794Z,100999.45
2018-03-20T02:35:05.905Z,101003.27
2018-03-20T02:37:34.185Z,100994.20
2018-03-20T02:40:06.004Z,100995.47
2018-03-20T02:42:34.291Z,100990.71
2018-03-20T02:45:08.369Z,100999.20
2018-03-20T02:47:36.671Z,101000.50
2018-03-20T02:50:06.127Z,101004.44
2018-03-20T02:52:34.424Z,101000.00
2018-03-20T02:55:05.757Z,101012.00
2018-03-20T02:57:34.222Z,101007.46
2018-03-20T03:00:09.976Z,101009.61
2018-03-20T03:02:38.754Z,101018.38
2018-03-20T03:05:07.208Z,101017.80
2018-03-20T03:07:35.526Z,101022.48
2018-03-20T03:10:07.550Z,101021.11
2018-03-20T03:12:35.924Z,101021.72
2018-03-20T03:15:05.967Z,101018.02
2018-03-20T03:17:34.328Z,101013.15
2018-03-20T03:20:05.680Z,101021.93
2018-03-20T03:22:34.037Z,101023.77
2018-03-20T03:25:05.577Z,101022.41
2018-03-20T03:27:33.898Z,101017.76
2018-03-20T03:30:08.784Z,101026.36
2018-03-20T03:32:37.657Z,101024.41
2018-03-20T03:35:06.758Z,101024.47
2018-03-20T03:37:35.060Z,101023.72
2018-03-20T03:40:06.337Z,101025.77
2018-03-20T03:42:34.641Z,101024.63
2018-03-20T03:45:06.054Z,101026.08
2018-03-20T03:47:34.362Z,101020.35
2018-03-20T03:50:07.448Z,101005.44
2018-03-20T03:52:35.749Z,101022.91
2018-03-20T03:55:05.817Z,101012.71
2018-03-20T03:57:34.109Z,101016.22
2018-03-20T04:00:08.010Z,101019.03
2018-03-20T04:02:36.588Z,101011.33
2018-03-20T04:05:06.010Z,101000.83
2018-03-20T04:07:34.697Z,101003.39
2018-03-20T04:10:05.793Z,101002.45
2018-03-20T04:12:34.091Z,100980.08
2018-03-20T04:15:07.981Z,100962.42
2018-03-20T04:17:36.596Z,100979.09
2018-03-20T04:20:05.920Z,101005.40
2018-03-20T04:22:34.174Z,101018.38
2018-03-20T04:25:09.494Z,101020.66
2018-03-20T04:27:37.793Z,101021.06
2018-03-20T04:30:06.096Z,101028.68
2018-03-20T04:32:34.377Z,101022.58
2018-03-20T04:35:05.848Z,101021.48
2018-03-20T04:37:34.122Z,101022.73
2018-03-20T04:40:05.901Z,101018.68
2018-03-20T04:42:34.181Z,101022.93
2018-03-20T04:45:09.294Z,101025.53
2018-03-20T04:47:37.643Z,101020.73
2018-03-20T04:50:05.952Z,101017.09
2018-03-20T04:52:34.380Z,101008.72
2018-03-20T04:55:09.497Z,101008.69
2018-03-20T04:57:37.785Z,101014.62
2018-03-20T05:00:06.091Z,101011.16
2018-03-20T05:02:34.388Z,101007.70
2018-03-20T05:05:09.648Z,100984.90
2018-03-20T05:07:38.018Z,100986.76
2018-03-20T05:10:07.015Z,100985.16
2018-03-20T05:12:35.340Z,100994.05
2018-03-20T05:15:07.245Z,100993.13
2018-03-20T05:17:35.560Z,101001.72
2018-03-20T05:23:26.380Z,101003.70
2018-03-20T05:25:54.823Z,101004.34
2018-03-20T05:28:23.309Z,101007.90
2018-03-20T05:30:51.659Z,101019.45
2018-03-20T05:33:20.175Z,101023.27
2018-03-20T05:35:48.491Z,101023.92
2018-03-20T05:38:16.793Z,101022.06
2018-03-20T05:40:45.104Z,101015.55
2018-03-20T05:43:13.582Z,101015.79
2018-03-20T05:45:41.872Z,101017.91
2018-03-20T05:48:12.592Z,101027.47
2018-03-20T05:50:43.813Z,101026.05
2018-03-20T05:53:12.122Z,101028.64
2018-03-20T05:55:40.506Z,101025.48
2018-03-20T05:58:08.972Z,101024.08
2018-03-20T06:00:37.286Z,101026.86
2018-03-20T06:03:05.601Z,101018.88
2018-03-20T06:05:33.890Z,101031.57
2018-03-20T06:08:02.170Z,101028.23
2018-03-20T06:10:30.481Z,101023.17
2018-03-20T06:12:58.775Z,101021.66
2018-03-20T06:15:27.078Z,101024.17
2018-03-20T06:17:55.635Z,101018.88
2018-03-20T06:20:23.973Z,101024.61
2018-03-20T06:22:52.646Z,101029.71
2018-03-20T06:25:20.952Z,101035.70
2018-03-20T06:27:49.240Z,101042.19
2018-03-20T06:30:18.175Z,101049.30
2018-03-20T06:32:46.518Z,101052.32
2018-03-20T06:35:14.820Z,101058.73
2018-03-20T06:37:43.618Z,101058.61
2018-03-20T06:40:11.944Z,101066.67
2018-03-20T06:42:40.238Z,101068.47
2018-03-20T06:45:08.528Z,101068.44
2018-03-20T06:47:36.885Z,101071.73
2018-03-20T06:50:06.553Z,101073.91
2018-03-20T06:52:34.869Z,101078.41
2018-03-20T06:55:06.868Z,101088.21
2018-03-20T06:57:35.182Z,101092.33
2018-03-20T07:00:07.402Z,101094.15
2018-03-20T07:02:35.708Z,101092.36
2018-03-20T07:05:10.175Z,101092.89
2018-03-20T07:07:38.489Z,101086.84
2018-03-20T07:10:06.779Z,101100.77
2018-03-20T07:12:35.113Z,101097.62
2018-03-20T07:15:06.826Z,101104.45
2018-03-20T07:17:35.163Z,101105.38
2018-03-20T07:20:07.004Z,101112.00
2018-03-20T07:22:35.536Z,101114.59
2018-03-20T07:25:07.269Z,101110.08
2018-03-20T07:27:35.579Z,101119.79
2018-03-20T07:30:07.926Z,101117.50
2018-03-20T07:32:36.369Z,101120.64
2018-03-20T07:35:06.107Z,101126.73
2018-03-20T07:37:34.413Z,101131.55
2018-03-20T07:40:06.545Z,101130.30
2018-03-20T07:42:34.865Z,101125.86
2018-03-20T07:45:06.784Z,101129.34
2018-03-20T07:47:35.082Z,101129.26
2018-03-20T07:50:06.594Z,101126.23
2018-03-20T07:52:34.909Z,101126.45
2018-03-20T07:55:05.887Z,101124.84
2018-03-20T07:57:34.195Z,101124.31
2018-03-20T08:00:09.238Z,101135.14
2018-03-20T08:02:37.599Z,101131.77
2018-03-20T08:05:06.000Z,101134.69
2018-03-20T08:07:34.369Z,101129.98
2018-03-20T08:10:09.400Z,101125.58
2018-03-20T08:12:37.887Z,101122.79
2018-03-20T08:15:06.204Z,101128.80
2018-03-20T08:17:35.110Z,101125.13
2018-03-20T08:20:06.983Z,101131.98
2018-03-20T08:22:35.271Z,101139.77
2018-03-20T08:25:07.455Z,101142.63
2018-03-20T08:27:35.745Z,101150.34
2018-03-20T08:30:07.865Z,101156.77
2018-03-20T08:32:36.157Z,101162.46
2018-03-20T08:35:06.337Z,101163.18
2018-03-20T08:37:34.623Z,101163.91
2018-03-20T08:40:06.610Z,101162.55
2018-03-20T08:42:34.907Z,101167.34
2018-03-20T08:45:05.873Z,101174.05
2018-03-20T08:47:34.526Z,101182.26
2018-03-20T08:50:05.883Z,101178.67
2018-03-20T08:52:34.175Z,101181.42
2018-03-20T08:55:09.729Z,101186.20
2018-03-20T08:57:38.054Z,101192.64
2018-03-20T09:00:06.346Z,101204.55
2018-03-20T09:02:34.922Z,101199.62
2018-03-20T09:05:06.966Z,101206.91
2018-03-20T09:07:35.449Z,101204.91
2018-03-20T09:10:07.493Z,101207.09
2018-03-20T09:12:35.815Z,101209.46
2018-03-20T09:15:05.958Z,101205.83
2018-03-20T09:17:34.270Z,101221.11
2018-03-20T09:20:07.341Z,101211.70
2018-03-20T09:22:35.665Z,101214.84
2018-03-20T09:25:07.111Z,101211.17
2018-03-20T09:27:35.565Z,101206.81
2018-03-20T09:30:07.850Z,101207.64
2018-03-20T09:32:36.550Z,101202.00
2018-03-20T09:35:06.292Z,101203.11
2018-03-20T09:37:34.580Z,101214.11
2018-03-20T09:40:06.585Z,101198.70
2018-03-20T09:42:34.885Z,101201.52
2018-03-20T09:45:06.254Z,101198.61
2018-03-20T09:47:34.576Z,101193.80
2018-03-20T09:50:06.050Z,101206.80
2018-03-20T09:52:34.350Z,101220.15
2018-03-20T09:55:09.477Z,101224.95
2018-03-20T09:57:37.769Z,101221.93
2018-03-20T10:00:06.088Z,101226.02
2018-03-20T10:02:34.371Z,101232.51
2018-03-20T10:05:09.690Z,101233.81
2018-03-20T10:07:37.969Z,101224.78
2018-03-20T10:10:06.286Z,101224.35
2018-03-20T10:12:34.784Z,101233.00
2018-03-20T10:15:08.751Z,101223.68
2018-03-20T10:17:37.176Z,101224.73
2018-03-20T10:20:06.677Z,101230.25
2018-03-20T10:22:34.902Z,101233.14
2018-03-20T10:25:06.009Z,101239.53
2018-03-20T10:27:34.304Z,101239.48
2018-03-20T10:30:05.933Z,101235.22
2018-03-20T10:32:34.365Z,101237.70
2018-03-20T10:35:06.023Z,101236.83
2018-03-20T10:37:34.324Z,101235.66
2018-03-20T10:40:05.903Z,101234.63
2018-03-20T10:42:34.182Z,101242.44
2018-03-20T10:45:05.858Z,101238.21
2018-03-20T10:47:34.539Z,101243.75
2018-03-20T10:50:06.514Z,101243.80
2018-03-20T10:52:34.806Z,101240.91
2018-03-20T10:55:06.077Z,101230.23
2018-03-20T10:57:34.515Z,101242.63
2018-03-20T11:00:06.132Z,101241.81
2018-03-20T11:02:34.525Z,101241.47
2018-03-20T11:05:06.170Z,101240.84
2018-03-20T11:07:34.789Z,101240.23
2018-03-20T11:10:06.905Z,101210.16
2018-03-20T11:12:35.396Z,101236.08
2018-03-20T11:15:07.426Z,101236.13
2018-03-20T11:17:35.754Z,101225.33
2018-03-20T11:20:08.166Z,101227.09
2018-03-20T11:22:36.448Z,101233.66
2018-03-20T11:25:08.056Z,101239.45
2018-03-20T11:27:37.497Z,101237.61
2018-03-20T11:30:06.537Z,101235.05
2018-03-20T11:32:34.846Z,101244.03
2018-03-20T11:35:06.872Z,101237.70
2018-03-20T11:37:35.158Z,101240.22
2018-03-20T11:40:07.332Z,101240.03
2018-03-20T11:42:35.993Z,101231.88
2018-03-20T11:45:07.633Z,101229.20
2018-03-20T11:47:35.901Z,101252.97
2018-03-20T11:50:07.212Z,101234.30
2018-03-20T11:52:35.651Z,101234.52
2018-03-20T11:55:07.746Z,101244.50
2018-03-20T11:57:36.016Z,101240.03
2018-03-20T12:00:06.136Z,101239.23
2018-03-20T12:02:34.414Z,101242.42
2018-03-20T12:05:06.042Z,101240.95
2018-03-20T12:07:34.300Z,101234.92
2018-03-20T12:10:05.958Z,101241.84
2018-03-20T12:12:34.233Z,101248.08
2018-03-20T12:15:09.521Z,101246.94
2018-03-20T12:17:37.817Z,101244.44
2018-03-20T12:20:06.110Z,101246.00
2018-03-20T12:22:34.726Z,101240.39
2018-03-20T12:25:06.319Z,101232.85
2018-03-20T12:27:34.621Z,101240.05
2018-03-20T12:30:09.732Z,101252.51
2018-03-20T12:32:38.029Z,101253.73
2018-03-20T12:35:06.301Z,101241.03
2018-03-20T12:37:34.604Z,101247.29
2018-03-20T12:40:06.005Z,101247.48
2018-03-20T12:42:34.301Z,101253.03
2018-03-20T12:45:09.222Z,101250.45
2018-03-20T12:47:37.507Z,101245.93
2018-03-20T12:50:06.446Z,101249.88
2018-03-20T12:52:34.739Z,101256.03
2018-03-20T12:55:06.557Z,101251.99
2018-03-20T12:57:34.841Z,101248.97
2018-03-20T13:00:06.949Z,101248.95
2018-03-20T13:02:35.544Z,101257.86
2018-03-20T13:05:06.960Z,101258.94
2018-03-20T13:07:35.517Z,101262.48
2018-03-20T13:10:07.321Z,101257.14
2018-03-20T13:12:35.614Z,101259.75
2018-03-20T13:15:06.824Z,101268.73
2018-03-20T13:17:35.099Z,101271.53
2018-03-20T13:20:07.185Z,101270.50
2018-03-20T13:22:35.683Z,101272.02
2018-03-20T13:25:07.430Z,101278.53
2018-03-20T13:27:35.698Z,101277.28
2018-03-20T13:30:07.746Z,101277.50
2018-03-20T13:32:36.032Z,101283.75
2018-03-20T13:35:08.076Z,101281.37
2018-03-20T13:37:36.409Z,101283.66
2018-03-20T13:40:07.887Z,101287.54
2018-03-20T13:42:36.196Z,101291.14
2018-03-20T13:45:06.145Z,101284.52
2018-03-20T13:47:34.471Z,101293.01
2018-03-20T13:50:06.090Z,101298.89
2018-03-20T13:52:34.382Z,101290.07
2018-03-20T13:55:09.568Z,101297.06
2018-03-20T13:57:38.106Z,101291.09
2018-03-20T14:00:06.461Z,101289.91
2018-03-20T14:02:34.943Z,101286.96
2018-03-20T14:05:06.331Z,101290.63
2018-03-20T14:07:34.566Z,101297.56
2018-03-20T14:10:08.840Z,101292.74
2018-03-20T14:12:37.129Z,101298.93
2018-03-20T14:15:06.660Z,101317.38
2018-03-20T14:17:35.585Z,101308.33
2018-03-20T14:20:07.231Z,101316.35
2018-03-20T14:22:36.035Z,101320.61
2018-03-20T14:25:07.888Z,101321.16
2018-03-20T14:27:36.184Z,101322.64
2018-03-20T14:30:07.583Z,101323.58
2018-03-20T14:32:36.385Z,101320.39
2018-03-20T14:35:07.990Z,101324.63
2018-03-20T14:37:36.294Z,101320.31
2018-03-20T14:40:06.674Z,101329.06
2018-03-20T14:42:34.961Z,101332.28
2018-03-20T14:45:10.292Z,101343.70
2018-03-20T14:47:38.585Z,101344.53
2018-03-20T14:50:06.885Z,101357.81
2018-03-20T14:52:35.157Z,101352.00
2018-03-20T14:55:06.349Z,101350.24
2018-03-20T14:57:34.648Z,101351.38
2018-03-20T15:00:06.073Z,101354.48
2018-03-20T15:02:34.353Z,101358.38
2018-03-20T15:05:09.509Z,101354.78
2018-03-20T15:07:37.915Z,101362.77
2018-03-20T15:10:06.763Z,101368.30
2018-03-20T15:12:35.043Z,101369.41
2018-03-20T15:15:09.041Z,101377.08
2018-03-20T15:17:37.305Z,101376.23
2018-03-20T15:20:06.613Z,101388.67
2018-03-20T15:22:35.640Z,101392.64
2018-03-20T15:25:11.054Z,101396.11
2018-03-20T15:27:39.355Z,101404.17
2018-03-20T15:30:07.666Z,101399.15
2018-03-20T15:32:35.933Z,101401.75
2018-03-20T15:35:07.302Z,101405.14
2018-03-20T15:37:36.107Z,101408.84
2018-03-20T15:40:08.013Z,101398.77
2018-03-20T15:42:36.297Z,101416.34
2018-03-20T15:45:06.334Z,101422.05
2018-03-20T15:47:34.883Z,101434.02
2018-03-20T15:50:09.885Z,101439.79
2018-03-20T15:52:38.295Z,101437.63
2018-03-20T15:55:06.587Z,101432.73
2018-03-20T15:57:34.866Z,101439.08
2018-03-20T16:00:06.226Z,101440.98
2018-03-20T16:02:35.087Z,101451.53
2018-03-20T16:05:06.368Z,101455.34
2018-03-20T16:07:34.683Z,101452.25
2018-03-20T16:10:09.688Z,101471.11
2018-03-20T16:12:38.730Z,101466.63
2018-03-20T16:15:07.037Z,101470.38
2018-03-20T16:17:35.796Z,101473.23
2018-03-20T16:20:07.666Z,101481.56
2018-03-20T16:22:36.590Z,101475.22
2018-03-20T16:25:06.768Z,101489.69
2018-03-20T16:27:35.051Z,101493.88
2018-03-20T16:30:07.082Z,101501.61
2018-03-20T16:32:35.383Z,101502.91
2018-03-20T16:35:07.406Z,101514.70
2018-03-20T16:37:35.708Z,101512.94
2018-03-20T16:40:06.579Z,101526.79
2018-03-20T16:42:35.503Z,101530.75
2018-03-20T16:45:08.213Z,101528.94
2018-03-20T16:47:36.766Z,101535.32
2018-03-20T16:50:08.017Z,101540.42
2018-03-20T16:52:37.051Z,101548.34
2018-03-20T16:55:06.578Z,101549.80
2018-03-20T16:57:35.354Z,101546.94
2018-03-20T17:00:07.123Z,101560.63
2018-03-20T17:02:35.393Z,101561.81
2018-03-20T17:05:08.081Z,101556.91
2018-03-20T17:07:36.505Z,101570.25
2018-03-20T17:10:06.361Z,101579.25
2018-03-20T17:12:34.644Z,101575.30
2018-03-20T17:15:08.588Z,101589.48
2018-03-20T17:17:37.101Z,101593.06
2018-03-20T17:20:07.077Z,101599.84
2018-03-20T17:22:35.608Z,101603.14
2018-03-20T17:25:07.323Z,101604.01
2018-03-20T17:27:36.753Z,101607.70
2018-03-20T17:30:06.861Z,101606.70
2018-03-20T17:32:35.134Z,101614.31
2018-03-20T17:35:07.161Z,101615.21
2018-03-20T17:37:35.647Z,101619.35
2018-03-20T17:40:07.441Z,101627.49
2018-03-20T17:42:35.739Z,101631.52
2018-03-20T17:45:08.214Z,101633.45
2018-03-20T17:47:36.505Z,101638.39
2018-03-20T17:50:06.638Z,101643.92
2018-03-20T17:52:34.968Z,101647.41
2018-03-20T17:55:08.303Z,101661.39
2018-03-20T17:57:36.581Z,101662.34
2018-03-20T18:00:06.610Z,101662.84
2018-03-20T18:02:34.904Z,101670.34
2018-03-20T18:05:10.113Z,101670.20
2018-03-20T18:07:38.399Z,101678.52
2018-03-20T18:10:06.730Z,101682.54
2018-03-20T18:12:35.097Z,101686.79
2018-03-20T18:15:07.211Z,101689.40
2018-03-20T18:17:35.498Z,101696.58
2018-03-20T18:20:05.503Z,101689.31
2018-03-20T18:22:33.780Z,101693.71
2018-03-20T18:25:05.206Z,101705.02
2018-03-20T18:27:33.492Z,101711.81
2018-03-20T18:30:08.625Z,101717.08
2018-03-20T18:32:37.686Z,101713.70
2018-03-20T18:35:05.994Z,101720.38
2018-03-20T18:37:34.259Z,101723.69
2018-03-20T18:40:05.557Z,101727.97
2018-03-20T18:42:34.146Z,101723.39
2018-03-20T18:45:08.603Z,101723.95
2018-03-20T18:47:36.848Z,101726.62
2018-03-20T18:50:06.179Z,101735.92
2018-03-20T18:52:34.498Z,101741.92
2018-03-20T18:55:06.397Z,101750.95
2018-03-20T18:57:35.248Z,101757.50
2018-03-20T19:00:08.777Z,101761.46
2018-03-20T19:02:37.055Z,101763.22
2018-03-20T19:05:06.502Z,101771.10
2018-03-20T19:07:35.219Z,101774.94
2018-03-20T19:10:06.957Z,101774.30
2018-03-20T19:12:35.348Z,101779.78
2018-03-20T19:15:08.477Z,101790.17
2018-03-20T19:17:36.804Z,101787.22
2018-03-20T19:20:06.097Z,101795.80
2018-03-20T19:22:35.122Z,101799.31
2018-03-20T19:25:06.531Z,101801.33
2018-03-20T19:27:34.831Z,101815.20
2018-03-20T19:30:06.837Z,101822.15
2018-03-20T19:32:35.938Z,101822.85
2018-03-20T19:35:07.238Z,101825.75
2018-03-20T19:37:36.418Z,101828.70
2018-03-20T19:40:05.907Z,101826.13
2018-03-20T19:42:34.215Z,101837.16
2018-03-20T19:45:08.348Z,101845.53
2018-03-20T19:47:36.624Z,101857.20
2018-03-20T19:50:06.157Z,101856.67
2018-03-20T19:52:34.444Z,101855.58
2018-03-20T19:55:05.770Z,101859.23
2018-03-20T19:57:34.057Z,101865.72
2018-03-20T20:00:05.880Z,101873.30
2018-03-20T20:02:34.172Z,101872.48
2018-03-20T20:05:08.487Z,101875.65
2018-03-20T20:07:36.773Z,101880.80
2018-03-20T20:10:06.438Z,101885.09
2018-03-20T20:12:35.404Z,101891.80
2018-03-20T20:15:06.823Z,101893.43
2018-03-20T20:17:35.120Z,101893.59
2018-03-20T20:20:06.660Z,101897.69
2018-03-20T20:22:34.978Z,101899.53
2018-03-20T20:25:05.776Z,101898.41
2018-03-20T20:27:34.077Z,101901.03
2018-03-20T20:30:05.691Z,101898.22
2018-03-20T20:32:33.972Z,101907.69
2018-03-20T20:35:09.157Z,101913.02
2018-03-20T20:37:37.792Z,101919.53
2018-03-20T20:40:06.338Z,101926.08
2018-03-20T20:42:34.662Z,101932.42
2018-03-20T20:45:06.539Z,101935.09
2018-03-20T20:47:34.826Z,101939.09
2018-03-20T20:50:06.869Z,101935.38
2018-03-20T20:52:35.155Z,101946.17
2018-03-20T20:55:06.375Z,101952.47
2018-03-20T20:57:34.726Z,101952.73
2018-03-20T21:00:06.585Z,101958.13
2018-03-20T21:02:34.902Z,101960.59
2018-03-20T21:05:07.110Z,101966.14
2018-03-20T21:07:35.428Z,101972.80
2018-03-20T21:10:07.467Z,101966.31
2018-03-20T21:12:35.937Z,101971.11
2018-03-20T21:15:05.966Z,101969.92
2018-03-20T21:17:34.252Z,101980.91
2018-03-20T21:20:08.404Z,101975.72
2018-03-20T21:22:36.649Z,101980.47
2018-03-20T21:25:06.133Z,101981.47
2018-03-20T21:27:34.440Z,101984.78
2018-03-20T21:30:06.477Z,101981.77
2018-03-20T21:32:34.832Z,101992.56
2018-03-20T21:35:07.060Z,101988.59
2018-03-20T21:37:35.596Z,101992.54
2018-03-20T21:40:07.467Z,101993.14
2018-03-20T21:42:36.005Z,101992.10
2018-03-20T21:45:05.970Z,101988.41
2018-03-20T21:47:34.238Z,101998.31
2018-03-20T21:50:05.606Z,102002.58
2018-03-20T21:52:33.897Z,101994.78
2018-03-20T21:55:08.901Z,102003.42
2018-03-20T21:57:37.472Z,102005.06
2018-03-20T22:00:05.821Z,102007.24
2018-03-20T22:02:34.297Z,102013.80
2018-03-20T22:05:05.983Z,102012.98
2018-03-20T22:07:34.259Z,102028.64
2018-03-20T22:10:05.971Z,102028.00
2018-03-20T22:12:34.273Z,102031.92
2018-03-20T22:15:05.602Z,102031.27
2018-03-20T22:17:33.876Z,102034.53
2018-03-20T22:20:05.349Z,102036.81
2018-03-20T22:22:33.652Z,102036.16
2018-03-20T22:25:05.577Z,102035.39
2018-03-20T22:27:34.834Z,102036.25
2018-03-20T22:30:06.886Z,102039.22
2018-03-20T22:32:35.506Z,102037.62
2018-03-20T22:35:07.390Z,102039.77
2018-03-20T22:37:35.943Z,102048.56
2018-03-20T22:40:07.632Z,102042.41
2018-03-20T22:42:35.906Z,102044.22
2018-03-20T22:45:05.911Z,102046.99
2018-03-20T22:47:34.330Z,102041.50
2018-03-20T22:50:05.801Z,102054.31
2018-03-20T22:52:34.107Z,102048.53
2018-03-20T22:55:06.016Z,102045.65
2018-03-20T22:57:34.309Z,102049.00
2018-03-20T23:00:05.706Z,102051.38
2018-03-20T23:02:34.076Z,102053.08
2018-03-20T23:05:05.590Z,102048.92
2018-03-20T23:07:33.894Z,102061.55
2018-03-20T23:10:05.902Z,102063.34
2018-03-20T23:12:34.240Z,102065.55
2018-03-20T23:15:06.235Z,102071.17
2018-03-20T23:17:35.155Z,102074.42
2018-03-20T23:20:06.647Z,102078.70
2018-03-20T23:22:34.928Z,102078.83
2018-03-20T23:25:06.858Z,102079.23
2018-03-20T23:27:35.336Z,102085.28
2018-03-20T23:30:07.478Z,102090.82
2018-03-20T23:32:35.754Z,102090.23
2018-03-20T23:35:05.820Z,102085.77
2018-03-20T23:37:34.082Z,102098.14
2018-03-20T23:40:06.261Z,102096.04
2018-03-20T23:42:34.544Z,102105.25
2018-03-20T23:45:05.983Z,102101.00
2018-03-20T23:47:34.244Z,102097.91
2018-03-20T23:50:09.144Z,102105.53
2018-03-20T23:52:37.409Z,102103.33
2018-03-20T23:55:06.207Z,102106.44
2018-03-20T23:57:34.469Z,102106.03
